AirNav   Everest Fuels
 
 935 users online  

85MA Lahey Clinic Heliport
Burlington, Massachusetts, USA

GOING TO BURLINGTON?


FAA INFORMATION EFFECTIVE 31 DECEMBER 2020

Location

FAA Identifier: 85MA
Lat/Long: 42-29-05.1500N 071-12-05.8500W
42-29.085833N 071-12.097500W
42.4847639,-71.2016250
(estimated)
Elevation: 241 ft. / 73 m (estimated)
From city: 1 mile NNE of BURLINGTON, MA
Time zone: UTC -5 (UTC -4 during Daylight Saving Time)
Zip code: 01803

Heliport Operations

Heliport use: Private use. Permission required prior to landing
Activation date: 05/2009
Control tower: no
ARTCC: BOSTON CENTER
FSS: BRIDGEPORT FLIGHT SERVICE STATION
Attendance: UNATNDD
Wind indicator: lighted
Segmented circle: no

Heliport Communications

WX ASOS at BED (4 nm W): 124.6 (781-274-9733)
WX ASOS at BOS (11 nm SE): 135.0 (617-567-5762)
WX ASOS at BVY (14 nm NE): 119.2 (978-921-5042)
WX ASOS at LWM (14 nm N): PHONE 978-687-8017
WX ASOS at OWD (18 nm S): 119.95 (781-762-4314)

Nearby radio navigation aids

VOR radial/distance  VOR name  Freq  Var
BOSr325/12.1BOSTON VOR/DME112.7016W
LWMr212/16.0LAWRENCE VOR/DME112.5015W
MHTr177/24.2MANCHESTER VOR/DME114.4015W
GDMr110/38.1GARDNER VOR/DME110.6014W
PSMr220/39.5PEASE VOR/DME116.5016W

Heliport Services

Runway Information

Helipad H1

Dimensions: 45 x 45 ft. / 14 x 14 m
Surface: asphalt
Runway edge lights: PERI
Latitude: 42-29.085833N
Longitude: 071-12.097500W
Traffic pattern: leftleft

Heliport Ownership and Management from official FAA records

Ownership: Privately-owned
Owner: LAHEY CLINIC FOUNDATION
41 MALL RD
BURLINGTON, MA 01805
Phone 781-744-8517
Manager: ED BORTONB, SENIOR DIR
41 MALL RD
BURLINGTON, MA 01805
Phone (781) 744-8517
ADNL CTC: JOHN.ANNESE@LAHEY.ORG.

Additional Remarks

FOR CD CTC BOSTON APCH AT 603-594-5554.

Instrument Procedures

There are no published instrument procedures at 85MA.

Some nearby airports with instrument procedures:

KBED - Laurence G Hanscom Field Airport (4 nm W)
KBOS - General Edward Lawrence Logan International Airport (11 nm SE)
KBVY - Beverly Regional Airport (14 nm NE)
6B6 - Minute Man Air Field (14 nm W)
KLWM - Lawrence Municipal Airport (14 nm N)
KOWD - Norwood Memorial Airport (18 nm S)
 
Loc | Ops | Rwys | IFR | FBO | Links
Com | Nav | Svcs | Stats | Notes
Aerial photo
No photo
 
Sectional chart

 
Airport distance calculator
Flying to Lahey Clinic Heliport? Find the distance to fly.

From to 85MA

Sunrise and sunset
Times for 18-Jan-2021
 Local
(UTC-5)
 Zulu
(UTC)
Morning civil twilight06:4011:40
Sunrise07:1112:11
Sunset16:3921:39
Evening civil twilight17:1022:10

Current date and time
Zulu (UTC)  18-Jan-2021 14:14:19
Local (UTC-5)  18-Jan-2021 09:14:19
 
METAR
KBED 
4nm W 
181351Z 24007KT 10SM CLR 04/M03 A2961 RMK AO2 SLP041 T00391028
KBOS 
11nm SE 
181354Z 24014KT 10SM FEW090 03/M03 A2963 RMK AO2 SLP034 T00331028
KBVY 
14nm NE 
181353Z 24011KT 10SM CLR 04/M02 A2960 RMK AO2 SLP021 T00441022 $
KLWM 
14nm N 
181354Z 23010KT 10SM CLR 04/M02 A2962 RMK AO2 SLP030 T00391022 $
KMQE 
17nm S 
181351Z AUTO 24010KT 02/M03 A2960 RMK AO1 SLP039 T00171033 $
KOWD 
18nm S 
181353Z 24008KT 10SM CLR 04/M03 A2964 RMK AO2 SLP037 T00441028
TAF
KBED 
4nm W 
181120Z 1812/1912 24007KT P6SM FEW100 FM181700 26010G18KT P6SM SCT060 FM182300 28009KT P6SM BKN060
KBOS 
11nm SE 
181120Z 1812/1918 24010KT P6SM FEW100 FM181600 25012G20KT P6SM FEW250 FM182200 28012G21KT P6SM BKN070 FM190300 29011KT P6SM FEW250
NOTAMs
Click for the latest NOTAMs
NOTAMs are issued by the DoD/FAA and will open in a separate window not controlled by AirNav.

 

 
 

Would you like to see your business listed on this page?

 If your business provides an interesting product or service to pilots, flight crews, aircraft, or users of the Lahey Clinic Heliport, you should consider listing it here.  To start the listing process, click on the button below
 
Add a business
 

Other Pages about Lahey Clinic Heliport

Update a link
 
Copyright © AirNav, LLC. All rights reserved. Privacy Policy  Contact